sensor_id;sensor_type;location;lat;lon;timestamp;P1;durP1;ratioP1;P2;durP2;ratioP2
32365;SDS011;18837;46.832;16.838;2023-03-31T00:01:35;3.20;;;2.50;;
32365;SDS011;18837;46.832;16.838;2023-03-31T00:48:31;2.40;;;2.17;;
32365;SDS011;18837;46.832;16.838;2023-03-31T00:51:04;2.23;;;1.70;;
32365;SDS011;18837;46.832;16.838;2023-03-31T00:53:31;2.10;;;1.90;;
32365;SDS011;18837;46.832;16.838;2023-03-31T00:56:02;2.47;;;2.00;;
32365;SDS011;18837;46.832;16.838;2023-03-31T01:04:54;2.63;;;2.10;;
32365;SDS011;18837;46.832;16.838;2023-03-31T01:07:49;2.03;;;1.83;;
32365;SDS011;18837;46.832;16.838;2023-03-31T01:10:15;2.10;;;1.90;;
32365;SDS011;18837;46.832;16.838;2023-03-31T01:12:46;2.43;;;2.17;;
32365;SDS011;18837;46.832;16.838;2023-03-31T01:15:15;2.47;;;2.07;;
32365;SDS011;18837;46.832;16.838;2023-03-31T01:17:55;2.10;;;1.70;;
32365;SDS011;18837;46.832;16.838;2023-03-31T01:20:35;3.13;;;1.80;;
32365;SDS011;18837;46.832;16.838;2023-03-31T01:26:01;2.40;;;2.00;;
32365;SDS011;18837;46.832;16.838;2023-03-31T01:58:48;2.13;;;1.57;;
32365;SDS011;18837;46.832;16.838;2023-03-31T02:01:29;3.00;;;1.77;;
32365;SDS011;18837;46.832;16.838;2023-03-31T02:04:19;2.10;;;1.90;;
32365;SDS011;18837;46.832;16.838;2023-03-31T02:13:00;2.77;;;1.67;;
32365;SDS011;18837;46.832;16.838;2023-03-31T02:15:46;1.83;;;1.73;;
32365;SDS011;18837;46.832;16.838;2023-03-31T03:02:06;1.70;;;1.40;;
32365;SDS011;18837;46.832;16.838;2023-03-31T03:21:52;2.70;;;1.40;;
32365;SDS011;18837;46.832;16.838;2023-03-31T03:24:18;1.80;;;1.40;;
32365;SDS011;18837;46.832;16.838;2023-03-31T03:26:46;1.50;;;1.40;;
32365;SDS011;18837;46.832;16.838;2023-03-31T03:29:12;1.97;;;1.43;;
32365;SDS011;18837;46.832;16.838;2023-03-31T03:31:39;1.67;;;1.40;;
32365;SDS011;18837;46.832;16.838;2023-03-31T03:36:52;2.67;;;1.50;;
32365;SDS011;18837;46.832;16.838;2023-03-31T03:39:18;1.30;;;1.20;;
32365;SDS011;18837;46.832;16.838;2023-03-31T03:41:43;1.97;;;1.53;;
32365;SDS011;18837;46.832;16.838;2023-03-31T03:44:10;1.47;;;1.37;;
32365;SDS011;18837;46.832;16.838;2023-03-31T03:46:36;1.80;;;1.50;;
32365;SDS011;18837;46.832;16.838;2023-03-31T03:55:33;2.00;;;1.23;;
32365;SDS011;18837;46.832;16.838;2023-03-31T03:57:58;1.50;;;1.40;;
32365;SDS011;18837;46.832;16.838;2023-03-31T04:00:24;1.60;;;1.23;;
32365;SDS011;18837;46.832;16.838;2023-03-31T04:02:51;1.33;;;1.10;;
32365;SDS011;18837;46.832;16.838;2023-03-31T04:05:17;1.37;;;1.27;;
32365;SDS011;18837;46.832;16.838;2023-03-31T04:07:42;1.90;;;1.33;;
32365;SDS011;18837;46.832;16.838;2023-03-31T04:10:08;1.50;;;1.30;;
32365;SDS011;18837;46.832;16.838;2023-03-31T04:12:34;1.53;;;1.30;;
32365;SDS011;18837;46.832;16.838;2023-03-31T04:15:00;1.40;;;1.30;;
32365;SDS011;18837;46.832;16.838;2023-03-31T04:17:26;2.17;;;1.50;;
32365;SDS011;18837;46.832;16.838;2023-03-31T04:20:08;1.40;;;1.20;;
32365;SDS011;18837;46.832;16.838;2023-03-31T04:22:35;1.40;;;1.30;;
32365;SDS011;18837;46.832;16.838;2023-03-31T04:31:15;1.57;;;1.20;;
32365;SDS011;18837;46.832;16.838;2023-03-31T04:33:52;1.43;;;1.33;;
32365;SDS011;18837;46.832;16.838;2023-03-31T04:36:19;1.40;;;1.30;;
32365;SDS011;18837;46.832;16.838;2023-03-31T04:38:48;1.80;;;1.40;;
32365;SDS011;18837;46.832;16.838;2023-03-31T04:41:18;1.40;;;1.30;;
32365;SDS011;18837;46.832;16.838;2023-03-31T04:43:45;1.97;;;1.53;;
32365;SDS011;18837;46.832;16.838;2023-03-31T04:46:12;1.50;;;1.30;;
32365;SDS011;18837;46.832;16.838;2023-03-31T04:48:37;1.30;;;1.20;;
32365;SDS011;18837;46.832;16.838;2023-03-31T04:51:03;1.30;;;1.20;;
32365;SDS011;18837;46.832;16.838;2023-03-31T04:53:29;1.30;;;1.20;;
32365;SDS011;18837;46.832;16.838;2023-03-31T04:55:55;1.33;;;1.23;;
32365;SDS011;18837;46.832;16.838;2023-03-31T05:04:30;1.80;;;1.50;;
32365;SDS011;18837;46.832;16.838;2023-03-31T05:06:56;1.80;;;1.40;;
32365;SDS011;18837;46.832;16.838;2023-03-31T05:09:22;1.63;;;1.20;;
32365;SDS011;18837;46.832;16.838;2023-03-31T05:11:47;1.87;;;1.13;;
32365;SDS011;18837;46.832;16.838;2023-03-31T05:14:13;2.37;;;1.57;;
32365;SDS011;18837;46.832;16.838;2023-03-31T05:16:39;1.33;;;1.23;;
32365;SDS011;18837;46.832;16.838;2023-03-31T05:19:15;1.30;;;1.20;;
32365;SDS011;18837;46.832;16.838;2023-03-31T05:21:42;1.87;;;1.37;;
32365;SDS011;18837;46.832;16.838;2023-03-31T05:24:08;1.53;;;1.20;;
32365;SDS011;18837;46.832;16.838;2023-03-31T05:26:34;1.37;;;1.27;;
32365;SDS011;18837;46.832;16.838;2023-03-31T05:29:00;1.40;;;1.30;;
32365;SDS011;18837;46.832;16.838;2023-03-31T05:31:26;1.40;;;1.30;;
32365;SDS011;18837;46.832;16.838;2023-03-31T05:39:41;1.40;;;1.30;;
32365;SDS011;18837;46.832;16.838;2023-03-31T05:42:07;2.17;;;1.37;;
32365;SDS011;18837;46.832;16.838;2023-03-31T05:44:33;2.57;;;1.40;;
32365;SDS011;18837;46.832;16.838;2023-03-31T05:46:58;1.93;;;1.20;;
32365;SDS011;18837;46.832;16.838;2023-03-31T05:49:24;1.93;;;1.33;;
32365;SDS011;18837;46.832;16.838;2023-03-31T05:52:06;2.43;;;1.83;;
32365;SDS011;18837;46.832;16.838;2023-03-31T05:54:32;1.70;;;1.60;;
32365;SDS011;18837;46.832;16.838;2023-03-31T05:56:58;2.20;;;1.50;;
32365;SDS011;18837;46.832;16.838;2023-03-31T05:59:24;1.90;;;1.50;;
32365;SDS011;18837;46.832;16.838;2023-03-31T06:01:50;1.60;;;1.40;;
32365;SDS011;18837;46.832;16.838;2023-03-31T06:04:16;2.13;;;1.40;;
32365;SDS011;18837;46.832;16.838;2023-03-31T06:06:42;1.23;;;1.13;;
32365;SDS011;18837;46.832;16.838;2023-03-31T06:14:51;2.07;;;1.50;;
32365;SDS011;18837;46.832;16.838;2023-03-31T06:17:17;2.40;;;1.60;;
32365;SDS011;18837;46.832;16.838;2023-03-31T06:19:43;1.73;;;1.40;;
32365;SDS011;18837;46.832;16.838;2023-03-31T06:22:09;1.47;;;1.30;;
32365;SDS011;18837;46.832;16.838;2023-03-31T06:24:35;1.67;;;1.40;;
32365;SDS011;18837;46.832;16.838;2023-03-31T06:27:07;1.80;;;1.20;;
32365;SDS011;18837;46.832;16.838;2023-03-31T06:29:32;2.87;;;1.80;;
32365;SDS011;18837;46.832;16.838;2023-03-31T06:31:58;2.87;;;1.47;;
32365;SDS011;18837;46.832;16.838;2023-03-31T06:34:25;1.73;;;1.30;;
32365;SDS011;18837;46.832;16.838;2023-03-31T06:36:51;3.23;;;1.33;;
32365;SDS011;18837;46.832;16.838;2023-03-31T06:39:17;1.77;;;1.30;;
32365;SDS011;18837;46.832;16.838;2023-03-31T06:48:02;2.60;;;1.30;;
32365;SDS011;18837;46.832;16.838;2023-03-31T06:50:28;2.17;;;1.43;;
32365;SDS011;18837;46.832;16.838;2023-03-31T06:52:54;2.77;;;1.37;;
32365;SDS011;18837;46.832;16.838;2023-03-31T06:55:20;1.87;;;1.37;;
32365;SDS011;18837;46.832;16.838;2023-03-31T06:57:45;2.23;;;1.40;;
32365;SDS011;18837;46.832;16.838;2023-03-31T07:00:11;2.63;;;1.47;;
32365;SDS011;18837;46.832;16.838;2023-03-31T07:02:43;2.47;;;1.40;;
32365;SDS011;18837;46.832;16.838;2023-03-31T07:05:09;1.97;;;1.50;;
32365;SDS011;18837;46.832;16.838;2023-03-31T07:07:35;2.70;;;1.47;;
32365;SDS011;18837;46.832;16.838;2023-03-31T07:10:01;2.97;;;1.50;;
32365;SDS011;18837;46.832;16.838;2023-03-31T07:12:27;1.77;;;1.47;;
32365;SDS011;18837;46.832;16.838;2023-03-31T07:14:53;2.40;;;1.50;;
32365;SDS011;18837;46.832;16.838;2023-03-31T07:20:47;1.70;;;1.50;;
32365;SDS011;18837;46.832;16.838;2023-03-31T07:23:14;1.63;;;1.40;;
32365;SDS011;18837;46.832;16.838;2023-03-31T07:25:40;2.73;;;1.63;;
32365;SDS011;18837;46.832;16.838;2023-03-31T07:28:06;1.90;;;1.40;;
32365;SDS011;18837;46.832;16.838;2023-03-31T07:30:32;1.67;;;1.37;;
32365;SDS011;18837;46.832;16.838;2023-03-31T07:32:58;3.33;;;1.60;;
32365;SDS011;18837;46.832;16.838;2023-03-31T07:35:39;1.70;;;1.50;;
32365;SDS011;18837;46.832;16.838;2023-03-31T07:38:06;2.30;;;1.80;;
32365;SDS011;18837;46.832;16.838;2023-03-31T07:40:33;1.97;;;1.57;;
32365;SDS011;18837;46.832;16.838;2023-03-31T07:42:58;3.63;;;1.90;;
32365;SDS011;18837;46.832;16.838;2023-03-31T07:45:25;2.50;;;1.43;;
32365;SDS011;18837;46.832;16.838;2023-03-31T07:47:51;3.80;;;1.50;;
32365;SDS011;18837;46.832;16.838;2023-03-31T07:50:17;2.00;;;1.80;;
32365;SDS011;18837;46.832;16.838;2023-03-31T07:52:56;1.97;;;1.60;;
32365;SDS011;18837;46.832;16.838;2023-03-31T07:55:37;2.37;;;1.50;;
32365;SDS011;18837;46.832;16.838;2023-03-31T07:58:03;1.93;;;1.67;;
32365;SDS011;18837;46.832;16.838;2023-03-31T08:00:28;2.97;;;1.77;;
32365;SDS011;18837;46.832;16.838;2023-03-31T08:02:54;3.13;;;1.70;;
32365;SDS011;18837;46.832;16.838;2023-03-31T08:05:20;2.77;;;2.27;;
32365;SDS011;18837;46.832;16.838;2023-03-31T08:07:47;6.10;;;3.58;;
32365;SDS011;18837;46.832;16.838;2023-03-31T08:10:22;17.43;;;11.07;;
32365;SDS011;18837;46.832;16.838;2023-03-31T08:12:50;18.63;;;11.30;;
32365;SDS011;18837;46.832;16.838;2023-03-31T08:15:16;20.80;;;11.30;;
32365;SDS011;18837;46.832;16.838;2023-03-31T08:17:42;18.67;;;8.93;;
32365;SDS011;18837;46.832;16.838;2023-03-31T08:20:08;13.00;;;7.50;;
32365;SDS011;18837;46.832;16.838;2023-03-31T08:22:35;13.17;;;7.80;;
32365;SDS011;18837;46.832;16.838;2023-03-31T08:25:02;9.43;;;6.07;;
32365;SDS011;18837;46.832;16.838;2023-03-31T08:30:26;6.87;;;4.60;;
32365;SDS011;18837;46.832;16.838;2023-03-31T08:32:51;8.13;;;5.03;;
32365;SDS011;18837;46.832;16.838;2023-03-31T08:35:17;7.77;;;4.77;;
32365;SDS011;18837;46.832;16.838;2023-03-31T08:37:43;6.93;;;4.50;;
32365;SDS011;18837;46.832;16.838;2023-03-31T08:40:13;6.83;;;4.50;;
32365;SDS011;18837;46.832;16.838;2023-03-31T08:42:44;7.40;;;4.33;;
32365;SDS011;18837;46.832;16.838;2023-03-31T08:45:26;5.13;;;3.20;;
32365;SDS011;18837;46.832;16.838;2023-03-31T08:50:31;4.93;;;3.43;;
32365;SDS011;18837;46.832;16.838;2023-03-31T08:53:06;5.47;;;2.93;;
32365;SDS011;18837;46.832;16.838;2023-03-31T08:55:50;3.10;;;2.40;;
32365;SDS011;18837;46.832;16.838;2023-03-31T09:16:03;4.70;;;2.90;;
32365;SDS011;18837;46.832;16.838;2023-03-31T09:18:40;3.73;;;2.40;;
32365;SDS011;18837;46.832;16.838;2023-03-31T09:21:17;3.93;;;2.00;;
32365;SDS011;18837;46.832;16.838;2023-03-31T09:31:53;3.93;;;2.90;;
32365;SDS011;18837;46.832;16.838;2023-03-31T09:34:39;3.53;;;2.27;;
32365;SDS011;18837;46.832;16.838;2023-03-31T09:40:40;5.07;;;2.63;;
32365;SDS011;18837;46.832;16.838;2023-03-31T09:43:26;3.20;;;2.50;;
32365;SDS011;18837;46.832;16.838;2023-03-31T09:45:54;6.83;;;2.80;;
32365;SDS011;18837;46.832;16.838;2023-03-31T09:48:22;5.17;;;2.83;;
32365;SDS011;18837;46.832;16.838;2023-03-31T09:50:58;2.57;;;2.33;;
32365;SDS011;18837;46.832;16.838;2023-03-31T09:53:49;5.00;;;2.43;;
32365;SDS011;18837;46.832;16.838;2023-03-31T09:56:33;3.77;;;2.27;;
32365;SDS011;18837;46.832;16.838;2023-03-31T09:59:15;4.27;;;2.33;;
32365;SDS011;18837;46.832;16.838;2023-03-31T10:01:59;5.17;;;2.37;;
32365;SDS011;18837;46.832;16.838;2023-03-31T10:04:29;4.23;;;2.10;;
32365;SDS011;18837;46.832;16.838;2023-03-31T10:06:57;2.50;;;2.03;;
32365;SDS011;18837;46.832;16.838;2023-03-31T10:09:31;2.80;;;2.23;;
32365;SDS011;18837;46.832;16.838;2023-03-31T10:15:02;3.87;;;2.27;;
32365;SDS011;18837;46.832;16.838;2023-03-31T10:17:41;3.97;;;2.10;;
32365;SDS011;18837;46.832;16.838;2023-03-31T10:23:01;4.70;;;2.20;;
32365;SDS011;18837;46.832;16.838;2023-03-31T10:25:39;3.27;;;2.23;;
32365;SDS011;18837;46.832;16.838;2023-03-31T10:28:09;3.67;;;2.20;;
32365;SDS011;18837;46.832;16.838;2023-03-31T10:30:59;4.53;;;2.50;;
32365;SDS011;18837;46.832;16.838;2023-03-31T10:33:26;2.43;;;2.20;;
32365;SDS011;18837;46.832;16.838;2023-03-31T10:35:59;2.03;;;1.83;;
32365;SDS011;18837;46.832;16.838;2023-03-31T10:38:35;4.10;;;2.23;;
32365;SDS011;18837;46.832;16.838;2023-03-31T10:41:06;2.73;;;2.20;;
32365;SDS011;18837;46.832;16.838;2023-03-31T10:43:43;3.20;;;2.07;;
32365;SDS011;18837;46.832;16.838;2023-03-31T10:49:38;3.50;;;2.13;;
32365;SDS011;18837;46.832;16.838;2023-03-31T10:52:24;5.13;;;2.60;;
32365;SDS011;18837;46.832;16.838;2023-03-31T10:54:54;2.50;;;2.20;;
32365;SDS011;18837;46.832;16.838;2023-03-31T11:06:26;2.80;;;1.97;;
32365;SDS011;18837;46.832;16.838;2023-03-31T11:09:22;3.47;;;2.10;;
32365;SDS011;18837;46.832;16.838;2023-03-31T11:12:18;4.90;;;2.53;;
32365;SDS011;18837;46.832;16.838;2023-03-31T11:15:09;3.37;;;2.60;;
32365;SDS011;18837;46.832;16.838;2023-03-31T11:30:13;3.00;;;2.13;;
32365;SDS011;18837;46.832;16.838;2023-03-31T11:41:25;3.03;;;2.07;;
32365;SDS011;18837;46.832;16.838;2023-03-31T11:44:00;3.10;;;2.30;;
32365;SDS011;18837;46.832;16.838;2023-03-31T12:01:08;4.53;;;2.20;;
32365;SDS011;18837;46.832;16.838;2023-03-31T12:06:44;4.37;;;2.10;;
32365;SDS011;18837;46.832;16.838;2023-03-31T12:12:14;4.63;;;2.43;;
32365;SDS011;18837;46.832;16.838;2023-03-31T12:17:52;3.87;;;2.00;;
32365;SDS011;18837;46.832;16.838;2023-03-31T12:20:38;2.47;;;2.23;;
32365;SDS011;18837;46.832;16.838;2023-03-31T12:23:12;3.47;;;2.10;;
32365;SDS011;18837;46.832;16.838;2023-03-31T12:34:11;4.93;;;2.40;;
32365;SDS011;18837;46.832;16.838;2023-03-31T12:44:58;6.77;;;4.27;;
32365;SDS011;18837;46.832;16.838;2023-03-31T12:56:21;6.70;;;3.23;;
32365;SDS011;18837;46.832;16.838;2023-03-31T12:58:47;4.83;;;3.10;;
32365;SDS011;18837;46.832;16.838;2023-03-31T13:12:38;4.97;;;2.50;;
32365;SDS011;18837;46.832;16.838;2023-03-31T13:15:05;3.10;;;2.40;;
32365;SDS011;18837;46.832;16.838;2023-03-31T13:17:38;5.00;;;2.87;;
32365;SDS011;18837;46.832;16.838;2023-03-31T13:20:16;4.47;;;2.37;;
32365;SDS011;18837;46.832;16.838;2023-03-31T13:23:14;5.37;;;2.80;;
32365;SDS011;18837;46.832;16.838;2023-03-31T13:31:09;2.50;;;1.83;;
32365;SDS011;18837;46.832;16.838;2023-03-31T13:33:50;5.87;;;2.07;;
32365;SDS011;18837;46.832;16.838;2023-03-31T13:57:23;2.90;;;1.80;;
32365;SDS011;18837;46.832;16.838;2023-03-31T14:17:00;4.63;;;2.40;;
32365;SDS011;18837;46.832;16.838;2023-03-31T14:36:11;4.13;;;2.00;;
32365;SDS011;18837;46.832;16.838;2023-03-31T14:38:50;3.33;;;1.87;;
32365;SDS011;18837;46.832;16.838;2023-03-31T14:41:19;1.80;;;1.70;;
32365;SDS011;18837;46.832;16.838;2023-03-31T14:43:53;1.77;;;1.57;;
32365;SDS011;18837;46.832;16.838;2023-03-31T14:52:46;3.83;;;1.80;;
32365;SDS011;18837;46.832;16.838;2023-03-31T14:55:16;2.90;;;1.90;;
32365;SDS011;18837;46.832;16.838;2023-03-31T14:57:44;3.67;;;2.17;;
32365;SDS011;18837;46.832;16.838;2023-03-31T15:00:14;2.80;;;1.60;;
32365;SDS011;18837;46.832;16.838;2023-03-31T15:02:48;2.80;;;1.83;;
32365;SDS011;18837;46.832;16.838;2023-03-31T15:05:24;1.90;;;1.67;;
32365;SDS011;18837;46.832;16.838;2023-03-31T15:07:57;2.63;;;1.60;;
32365;SDS011;18837;46.832;16.838;2023-03-31T15:10:38;2.53;;;1.80;;
32365;SDS011;18837;46.832;16.838;2023-03-31T15:13:07;2.70;;;1.93;;
32365;SDS011;18837;46.832;16.838;2023-03-31T15:15:34;3.13;;;1.80;;
32365;SDS011;18837;46.832;16.838;2023-03-31T15:17:59;2.67;;;1.30;;
32365;SDS011;18837;46.832;16.838;2023-03-31T15:20:39;2.57;;;1.57;;
32365;SDS011;18837;46.832;16.838;2023-03-31T15:26:44;3.03;;;1.90;;
32365;SDS011;18837;46.832;16.838;2023-03-31T15:29:39;2.23;;;1.50;;
32365;SDS011;18837;46.832;16.838;2023-03-31T15:32:16;2.33;;;2.00;;
32365;SDS011;18837;46.832;16.838;2023-03-31T15:34:46;2.10;;;1.60;;
32365;SDS011;18837;46.832;16.838;2023-03-31T15:37:12;1.83;;;1.60;;
32365;SDS011;18837;46.832;16.838;2023-03-31T15:42:24;3.23;;;1.70;;
32365;SDS011;18837;46.832;16.838;2023-03-31T15:44:55;4.53;;;1.63;;
32365;SDS011;18837;46.832;16.838;2023-03-31T15:47:50;2.00;;;1.63;;
32365;SDS011;18837;46.832;16.838;2023-03-31T15:50:17;3.20;;;1.80;;
32365;SDS011;18837;46.832;16.838;2023-03-31T15:52:50;2.97;;;1.80;;
32365;SDS011;18837;46.832;16.838;2023-03-31T16:01:41;3.80;;;1.90;;
32365;SDS011;18837;46.832;16.838;2023-03-31T16:04:10;3.33;;;1.63;;
32365;SDS011;18837;46.832;16.838;2023-03-31T16:11:57;1.70;;;1.40;;
32365;SDS011;18837;46.832;16.838;2023-03-31T16:14:44;5.47;;;1.87;;
32365;SDS011;18837;46.832;16.838;2023-03-31T16:17:34;4.37;;;1.63;;
32365;SDS011;18837;46.832;16.838;2023-03-31T16:20:15;2.13;;;1.60;;
32365;SDS011;18837;46.832;16.838;2023-03-31T16:22:47;2.33;;;1.20;;
32365;SDS011;18837;46.832;16.838;2023-03-31T16:25:17;4.00;;;1.53;;
32365;SDS011;18837;46.832;16.838;2023-03-31T16:27:53;1.77;;;1.63;;
32365;SDS011;18837;46.832;16.838;2023-03-31T16:30:40;3.07;;;1.60;;
32365;SDS011;18837;46.832;16.838;2023-03-31T16:36:24;1.73;;;1.40;;
32365;SDS011;18837;46.832;16.838;2023-03-31T16:38:51;2.97;;;1.50;;
32365;SDS011;18837;46.832;16.838;2023-03-31T16:41:18;4.17;;;2.00;;
32365;SDS011;18837;46.832;16.838;2023-03-31T16:43:45;2.77;;;1.67;;
32365;SDS011;18837;46.832;16.838;2023-03-31T16:46:11;1.53;;;1.40;;
32365;SDS011;18837;46.832;16.838;2023-03-31T16:48:37;2.73;;;1.80;;
32365;SDS011;18837;46.832;16.838;2023-03-31T16:51:03;3.77;;;1.80;;
32365;SDS011;18837;46.832;16.838;2023-03-31T16:53:30;3.67;;;1.67;;
32365;SDS011;18837;46.832;16.838;2023-03-31T16:55:58;2.70;;;1.77;;
32365;SDS011;18837;46.832;16.838;2023-03-31T16:58:24;2.80;;;1.77;;
32365;SDS011;18837;46.832;16.838;2023-03-31T17:00:52;2.60;;;1.93;;
32365;SDS011;18837;46.832;16.838;2023-03-31T17:03:19;4.67;;;1.73;;
32365;SDS011;18837;46.832;16.838;2023-03-31T17:08:46;3.63;;;1.80;;
32365;SDS011;18837;46.832;16.838;2023-03-31T17:11:12;3.43;;;1.93;;
32365;SDS011;18837;46.832;16.838;2023-03-31T17:13:38;5.13;;;1.80;;
32365;SDS011;18837;46.832;16.838;2023-03-31T17:16:06;4.77;;;1.80;;
32365;SDS011;18837;46.832;16.838;2023-03-31T17:18:32;3.43;;;1.67;;
32365;SDS011;18837;46.832;16.838;2023-03-31T17:21:09;2.87;;;1.70;;
32365;SDS011;18837;46.832;16.838;2023-03-31T17:23:44;2.57;;;1.67;;
32365;SDS011;18837;46.832;16.838;2023-03-31T17:26:10;2.33;;;1.80;;
32365;SDS011;18837;46.832;16.838;2023-03-31T17:28:37;4.07;;;1.90;;
32365;SDS011;18837;46.832;16.838;2023-03-31T17:31:25;4.17;;;2.20;;
32365;SDS011;18837;46.832;16.838;2023-03-31T17:33:50;2.33;;;1.50;;
32365;SDS011;18837;46.832;16.838;2023-03-31T17:36:16;3.00;;;1.50;;
32365;SDS011;18837;46.832;16.838;2023-03-31T17:38:45;3.30;;;1.63;;
32365;SDS011;18837;46.832;16.838;2023-03-31T17:43:56;3.63;;;1.90;;
32365;SDS011;18837;46.832;16.838;2023-03-31T17:46:22;2.33;;;1.53;;
32365;SDS011;18837;46.832;16.838;2023-03-31T17:48:48;4.80;;;2.40;;
32365;SDS011;18837;46.832;16.838;2023-03-31T17:51:18;2.70;;;1.77;;
32365;SDS011;18837;46.832;16.838;2023-03-31T17:53:45;4.43;;;1.80;;
32365;SDS011;18837;46.832;16.838;2023-03-31T17:56:13;5.50;;;1.83;;
32365;SDS011;18837;46.832;16.838;2023-03-31T17:58:45;4.20;;;1.83;;
32365;SDS011;18837;46.832;16.838;2023-03-31T18:01:12;3.97;;;1.90;;
32365;SDS011;18837;46.832;16.838;2023-03-31T18:03:38;2.10;;;1.77;;
32365;SDS011;18837;46.832;16.838;2023-03-31T18:06:05;3.00;;;2.23;;
32365;SDS011;18837;46.832;16.838;2023-03-31T18:08:32;2.73;;;1.80;;
32365;SDS011;18837;46.832;16.838;2023-03-31T18:10:59;2.77;;;1.90;;
32365;SDS011;18837;46.832;16.838;2023-03-31T18:13:39;2.33;;;1.80;;
32365;SDS011;18837;46.832;16.838;2023-03-31T18:18:56;2.50;;;1.90;;
32365;SDS011;18837;46.832;16.838;2023-03-31T18:21:22;3.63;;;1.90;;
32365;SDS011;18837;46.832;16.838;2023-03-31T18:23:49;3.30;;;2.10;;
32365;SDS011;18837;46.832;16.838;2023-03-31T18:26:19;4.47;;;1.90;;
32365;SDS011;18837;46.832;16.838;2023-03-31T18:28:49;3.90;;;2.10;;
32365;SDS011;18837;46.832;16.838;2023-03-31T18:31:15;4.40;;;1.97;;
32365;SDS011;18837;46.832;16.838;2023-03-31T18:33:46;3.93;;;2.50;;
32365;SDS011;18837;46.832;16.838;2023-03-31T18:36:17;4.57;;;2.37;;
32365;SDS011;18837;46.832;16.838;2023-03-31T18:38:44;3.30;;;1.73;;
32365;SDS011;18837;46.832;16.838;2023-03-31T18:41:11;4.30;;;1.90;;
32365;SDS011;18837;46.832;16.838;2023-03-31T18:43:37;4.60;;;2.13;;
32365;SDS011;18837;46.832;16.838;2023-03-31T18:46:03;3.23;;;1.90;;
32365;SDS011;18837;46.832;16.838;2023-03-31T18:55:00;4.07;;;2.00;;
32365;SDS011;18837;46.832;16.838;2023-03-31T18:57:26;4.07;;;2.17;;
32365;SDS011;18837;46.832;16.838;2023-03-31T18:59:52;3.20;;;1.83;;
32365;SDS011;18837;46.832;16.838;2023-03-31T19:02:18;3.60;;;1.80;;
32365;SDS011;18837;46.832;16.838;2023-03-31T19:04:45;2.43;;;1.83;;
32365;SDS011;18837;46.832;16.838;2023-03-31T19:07:15;3.17;;;2.03;;
32365;SDS011;18837;46.832;16.838;2023-03-31T19:09:50;2.20;;;1.73;;
32365;SDS011;18837;46.832;16.838;2023-03-31T19:12:16;2.67;;;1.90;;
32365;SDS011;18837;46.832;16.838;2023-03-31T19:14:42;2.93;;;1.90;;
32365;SDS011;18837;46.832;16.838;2023-03-31T19:17:08;3.77;;;1.80;;
32365;SDS011;18837;46.832;16.838;2023-03-31T19:19:34;1.60;;;1.40;;
32365;SDS011;18837;46.832;16.838;2023-03-31T19:22:15;2.80;;;1.87;;
32365;SDS011;18837;46.832;16.838;2023-03-31T19:28:06;2.10;;;1.67;;
32365;SDS011;18837;46.832;16.838;2023-03-31T19:30:32;2.47;;;1.80;;
32365;SDS011;18837;46.832;16.838;2023-03-31T19:32:58;3.73;;;1.83;;
32365;SDS011;18837;46.832;16.838;2023-03-31T19:35:26;2.80;;;2.03;;
32365;SDS011;18837;46.832;16.838;2023-03-31T19:37:53;3.47;;;1.80;;
32365;SDS011;18837;46.832;16.838;2023-03-31T19:40:21;2.30;;;1.60;;
32365;SDS011;18837;46.832;16.838;2023-03-31T19:42:56;2.97;;;1.90;;
32365;SDS011;18837;46.832;16.838;2023-03-31T19:45:22;3.30;;;1.80;;
32365;SDS011;18837;46.832;16.838;2023-03-31T19:47:48;2.80;;;1.73;;
32365;SDS011;18837;46.832;16.838;2023-03-31T19:50:14;2.33;;;1.57;;
32365;SDS011;18837;46.832;16.838;2023-03-31T19:52:40;3.83;;;2.07;;
32365;SDS011;18837;46.832;16.838;2023-03-31T19:55:06;4.90;;;1.87;;
32365;SDS011;18837;46.832;16.838;2023-03-31T19:57:47;2.37;;;1.77;;
32365;SDS011;18837;46.832;16.838;2023-03-31T20:03:06;1.87;;;1.73;;
32365;SDS011;18837;46.832;16.838;2023-03-31T20:05:32;2.57;;;1.80;;
32365;SDS011;18837;46.832;16.838;2023-03-31T20:07:58;2.40;;;1.80;;
32365;SDS011;18837;46.832;16.838;2023-03-31T20:10:24;2.33;;;1.93;;
32365;SDS011;18837;46.832;16.838;2023-03-31T20:12:50;2.33;;;1.70;;
32365;SDS011;18837;46.832;16.838;2023-03-31T20:15:16;2.23;;;1.80;;
32365;SDS011;18837;46.832;16.838;2023-03-31T20:17:51;2.13;;;1.60;;
32365;SDS011;18837;46.832;16.838;2023-03-31T20:20:17;2.77;;;1.60;;
32365;SDS011;18837;46.832;16.838;2023-03-31T20:22:43;2.40;;;1.60;;
32365;SDS011;18837;46.832;16.838;2023-03-31T20:25:09;1.93;;;1.63;;
32365;SDS011;18837;46.832;16.838;2023-03-31T20:27:35;3.07;;;1.97;;
32365;SDS011;18837;46.832;16.838;2023-03-31T20:30:01;2.73;;;1.80;;
32365;SDS011;18837;46.832;16.838;2023-03-31T20:35:29;2.30;;;1.77;;
32365;SDS011;18837;46.832;16.838;2023-03-31T20:37:58;2.53;;;1.90;;
32365;SDS011;18837;46.832;16.838;2023-03-31T20:40:24;2.07;;;1.67;;
32365;SDS011;18837;46.832;16.838;2023-03-31T20:42:50;2.37;;;1.63;;
32365;SDS011;18837;46.832;16.838;2023-03-31T20:45:16;2.83;;;1.70;;
32365;SDS011;18837;46.832;16.838;2023-03-31T20:47:42;2.03;;;1.80;;
32365;SDS011;18837;46.832;16.838;2023-03-31T20:52:52;3.00;;;1.97;;
32365;SDS011;18837;46.832;16.838;2023-03-31T20:55:18;4.13;;;1.73;;
32365;SDS011;18837;46.832;16.838;2023-03-31T20:57:44;2.07;;;1.70;;
32365;SDS011;18837;46.832;16.838;2023-03-31T21:00:10;2.60;;;1.50;;
32365;SDS011;18837;46.832;16.838;2023-03-31T21:02:36;1.97;;;1.63;;
32365;SDS011;18837;46.832;16.838;2023-03-31T21:05:03;3.00;;;1.97;;
32365;SDS011;18837;46.832;16.838;2023-03-31T21:10:54;2.90;;;1.90;;
32365;SDS011;18837;46.832;16.838;2023-03-31T21:13:25;2.83;;;1.50;;
32365;SDS011;18837;46.832;16.838;2023-03-31T21:15:53;3.73;;;1.83;;
32365;SDS011;18837;46.832;16.838;2023-03-31T21:18:20;2.40;;;1.60;;
32365;SDS011;18837;46.832;16.838;2023-03-31T21:20:54;3.10;;;1.80;;
32365;SDS011;18837;46.832;16.838;2023-03-31T21:23:21;2.03;;;1.77;;
32365;SDS011;18837;46.832;16.838;2023-03-31T21:25:58;2.90;;;1.83;;
32365;SDS011;18837;46.832;16.838;2023-03-31T21:28:27;2.60;;;2.17;;
32365;SDS011;18837;46.832;16.838;2023-03-31T21:30:56;2.67;;;1.70;;
32365;SDS011;18837;46.832;16.838;2023-03-31T21:33:26;2.47;;;1.80;;
32365;SDS011;18837;46.832;16.838;2023-03-31T21:35:53;2.80;;;1.60;;
32365;SDS011;18837;46.832;16.838;2023-03-31T21:38:20;3.13;;;2.03;;
32365;SDS011;18837;46.832;16.838;2023-03-31T21:44:04;1.80;;;1.50;;
32365;SDS011;18837;46.832;16.838;2023-03-31T21:46:31;1.97;;;1.33;;
32365;SDS011;18837;46.832;16.838;2023-03-31T21:48:57;2.43;;;1.50;;
32365;SDS011;18837;46.832;16.838;2023-03-31T21:51:24;2.20;;;1.80;;
32365;SDS011;18837;46.832;16.838;2023-03-31T21:53:50;1.77;;;1.40;;
32365;SDS011;18837;46.832;16.838;2023-03-31T21:56:23;2.20;;;1.80;;
32365;SDS011;18837;46.832;16.838;2023-03-31T21:59:09;3.30;;;1.80;;
32365;SDS011;18837;46.832;16.838;2023-03-31T22:01:35;2.30;;;1.70;;
32365;SDS011;18837;46.832;16.838;2023-03-31T22:04:01;2.63;;;1.70;;
32365;SDS011;18837;46.832;16.838;2023-03-31T22:06:26;2.47;;;1.50;;
32365;SDS011;18837;46.832;16.838;2023-03-31T22:08:52;2.40;;;1.63;;
32365;SDS011;18837;46.832;16.838;2023-03-31T22:11:18;1.73;;;1.30;;
32365;SDS011;18837;46.832;16.838;2023-03-31T22:13:44;1.57;;;1.40;;
32365;SDS011;18837;46.832;16.838;2023-03-31T22:21:43;2.03;;;1.60;;
32365;SDS011;18837;46.832;16.838;2023-03-31T22:24:09;2.03;;;1.53;;
32365;SDS011;18837;46.832;16.838;2023-03-31T22:26:37;1.77;;;1.43;;